x

Diamond Shoals (41025) Wave Buoy

8:50 - Wed 23rd Aug 2017 All times are EDT. -4 hours from GMT.

  • Sig Wave height 3.9ft
  • Swell Direction
  • Peak Period 5s
  • Average Period 5s
  • Wind
    18mph, 20mph gusts
  • Sea Temp 84°f
  • Luft Temp 83°f
  • Sea Pressure 1012.5mb
  • Diamond Shoals
  • Diamond Shoals

More Historic Weather Station data

Upgrade to MSW Pro to gain access to the past 30 days of data for over 8000 Wavebouys and Weather Stations around the globe.

Join

Comparision Forecast

View Surf forecast
   
Mi 08/23 8:50 4ft 5s 5s 18 20 mph 1012.5mb 84f 83f
7:50 4.5ft 5s 5s 18 20 mph 1012.6mb 85f 83f
6:50 4.5ft 9s 4s 18 22 mph 1012.7mb 85f 83f
5:50 4ft 10s 5s 20 22 mph 1012.6mb 85f 83f
4:50 4.5ft 8s 5s 20 22 mph 1012.8mb 85f 83f
3:50 4.5ft 8s 5s 18 22 mph 1013mb 85f 83f
2:50 4.5ft 8s 5s 20 27 mph 1013.6mb 85f 84f
1:50 4.5ft 9s 5s 20 22 mph 1013.8mb 85f 84f
12:50 5ft 8s 5s 20 22 mph 1014.2mb 85f 83f
Di 08/22 11:50 5ft 8s 5s 20 25 mph 1014.5mb 86f 84f
10:50 5ft 9s 5s 20 25 mph 1015.2mb 85f 84f
9:50 4.5ft 9s 5s 20 25 mph 1015.4mb 86f 84f
8:50 4.5ft 10s 5s 20 25 mph 1015.2mb 86f 84f
7:50 4.5ft 9s 5s 20 22 mph 1015.1mb 86f 84f
6:50 4.5ft 10s 5s 18 20 mph 1015.1mb 86f 84f
5:50 4ft 10s 5s 20 22 mph 1015.9mb 86f 83f
4:50 4ft 10s 5s 18 20 mph 1016.8mb 87f 83f
2:50 3.5ft 10s 8s 16 18 mph 1018mb 87f 84f
1:50 3.5ft 10s 7s 13 16 mph 1018.8mb 87f 83f
12:50 3ft 10s 8s 11 13 mph 1019.2mb 87f 83f
11:50 3ft 10s 7s 11 13 mph 1019.5mb 87f 83f
10:50 3ft 9s 8s 9 11 mph 1019.8mb 87f 82f
9:50 2.5ft 9s 7s 7 7 mph 1019.9mb 87f 82f
8:50 2.5ft 11s 7s 2 4 mph 1019.8mb 87f 82f
7:50 2.5ft 9s 7s 2 4 mph 1020mb 86f 81f
6:50 3ft 9s 7s 4 7 mph 1019.9mb 86f 81f
5:50 2.5ft 9s 7s  -  2 mph 1019.8mb 86f 82f
4:50 2.5ft 9s 7s 4 7 mph 1020mb 86f 82f
3:50 3ft 9s 7s 4 7 mph 1020.3mb 86f 82f
2:50 2.5ft 9s 7s 4 7 mph 1020.7mb 84f 82f
1:50 2.5ft 8s 7s 7 9 mph 1021.3mb 84f 83f
12:50 2.5ft 8s 7s 2 4 mph 1021.5mb 84f 83f
Mo 08/21 11:50 2.5ft 8s 6s 2 4 mph 1021.4mb 84f 83f
10:50 2.5ft 9s 7s 4 7 mph 1021.6mb 84f 83f
9:50 2.5ft 8s 7s 4 7 mph 1021.8mb 84f 83f
8:50 2.5ft 9s 6s  -  2 mph 1021.6mb 84f 83f
7:50 2.5ft 8s 6s 2 2 mph 1021.3mb 84f 83f
6:50 2.5ft 8s 6s 4 7 mph 1021.2mb 85f 83f
5:50 2.5ft 8s 6s 4 7 mph 1021.4mb 85f 83f
4:50 2.5ft 8s 6s 2 4 mph 1021.4mb 85f 83f
3:50 2ft 9s 5s 4 4 mph 1021.2mb 85f 82f
2:50 2.5ft 8s 6s 2 4 mph 1021.9mb 85f 82f
1:50 2ft 7s 5s 11 13 mph 1022.5mb 85f 82f
12:50 2.5ft 8s 5s 13 16 mph 1023mb 85f 83f
11:50 2ft 9s 5s 11 13 mph 1023.2mb 85f 84f
10:50 2.5ft 8s 6s 11 13 mph 1023mb 84f 83f
9:50 2.5ft 8s 5s 11 11 mph 1022.7mb 85f 84f
8:50 2.5ft 9s 6s 11 13 mph 1022.7mb 85f 83f
7:50 2ft 8s 6s 9 11 mph 1022.3mb 85f 83f
6:50 2.5ft 8s 6s 9 11 mph 1021.7mb 85f 82f
5:50 2ft 8s 6s 9 11 mph 1021.1mb 85f 82f
4:50 2ft 8s 6s 9 11 mph 1021.1mb 85f 82f
3:50 2.5ft 8s 6s 7 9 mph 1020.7mb 85f 82f
2:50 2ft 8s 6s 7 7 mph 1021mb 85f 83f
1:50 2.5ft 8s 6s 7 7 mph 1021.1mb 85f 82f
12:50 2ft 8s 7s  -  2 mph 1021.4mb 85f 83f
So 08/20 11:50 2ft 8s 6s 2 2 mph 1021.2mb 85f 83f
10:50 2ft 8s 6s 4 4 mph 1021.2mb 85f 84f
9:50 2ft 9s 6s 4 7 mph 1021mb 85f 84f
8:50 2ft 9s 6s 4 4 mph 1020.5mb 85f 83f
7:50 2.5ft 8s 6s 7 9 mph 1019.9mb 85f 83f
6:50 2ft 9s 6s 7 7 mph 1019.3mb 85f 82f
5:50 2.5ft 8s 6s 4 7 mph 1019.3mb 85f 82f
4:50 2.5ft 9s 6s 7 7 mph 1019mb 85f 82f
3:50 2.5ft 8s 6s 2 4 mph 1018.8mb 83f 81f
2:50 2.5ft 9s 6s 4 7 mph 1019mb 83f 80f
1:50 2.5ft 9s 6s 4 7 mph 1019.3mb 84f 80f
12:50 2.5ft 8s 5s 4 7 mph 1019.1mb 85f 80f
11:50 2.5ft 8s 5s 7 7 mph 1019.1mb 84f 80f
10:50 2.5ft 9s 5s 4 7 mph 1019.2mb 84f 81f
9:50 2.5ft 8s 5s 7 7 mph 1018.2mb 82f 80f
8:50 2.5ft 9s 5s 11 13 mph 1017.9mb 82f 80f
7:50 2.5ft 9s 5s 11 11 mph 1018mb 82f 80f
6:50 3ft 9s 5s 13 16 mph 1017mb 82f 79f
5:50 3.5ft 9s 5s 9 11 mph 1016mb 83f 81f
4:50 3ft 9s 5s 9 11 mph 1015.7mb 83f 82f
3:50 3.5ft 8s 5s 9 11 mph 1015.8mb 83f 82f
2:50 3ft 9s 5s 9 11 mph 1015.3mb 83f 83f
1:50 3ft 9s 5s 11 11 mph 1015.7mb 83f 83f
12:50 3ft 9s 5s 13 16 mph 1015.5mb 83f 83f
Sa 08/19 11:50 3.5ft 9s 5s 13 16 mph 1015.3mb 83f 83f
10:50 3.5ft 8s 4s 18 20 mph 1015mb 83f 83f
9:50 3.5ft 9s 4s 18 22 mph 1014.7mb 83f 83f
8:50 3.5ft 9s 4s 7 9 mph 1013.9mb 83f 82f
7:50 3.5ft 6s 5s 11 13 mph 1013.4mb 83f 80f
6:50 4.5ft 4s 4s 9 11 mph 1014mb 84f 77f
5:50 3.5ft 7s 4s 22 29 mph 1013.7mb 84f 79f
4:50 4ft 4s 4s 9 13 mph 1013.9mb 84f 82f
3:50 4.5ft 6s 5s 16 18 mph 1013.3mb 84f 82f
2:50 4ft 5s 5s 18 25 mph 1013.5mb 84f 84f